createdAt,value
2019-01-16T00:00:36.430Z,100.00
2019-01-16T00:03:22.791Z,100.00
2019-01-16T00:06:09.954Z,100.00
2019-01-16T00:08:57.285Z,100.00
2019-01-16T00:11:28.695Z,100.00
2019-01-16T00:14:05.786Z,100.00
2019-01-16T00:16:43.227Z,100.00
2019-01-16T00:19:14.585Z,100.00
2019-01-16T00:21:53.155Z,100.00
2019-01-16T00:24:33.650Z,100.00
2019-01-16T00:27:12.282Z,100.00
2019-01-16T00:29:55.586Z,100.00
2019-01-16T00:32:33.160Z,100.00
2019-01-16T00:35:10.106Z,100.00
2019-01-16T00:37:44.053Z,100.00
2019-01-16T00:40:16.326Z,100.00
2019-01-16T00:42:47.659Z,100.00
2019-01-16T00:45:19.035Z,100.00
2019-01-16T00:47:52.991Z,100.00
2019-01-16T00:50:36.346Z,100.00
2019-01-16T00:53:13.618Z,100.00
2019-01-16T00:55:43.321Z,100.00
2019-01-16T00:58:26.610Z,100.00
2019-01-16T01:01:14.260Z,100.00
2019-01-16T01:03:48.376Z,100.00
2019-01-16T01:06:19.744Z,100.00
2019-01-16T01:09:09.037Z,100.00
2019-01-16T01:11:52.102Z,100.00
2019-01-16T01:14:32.214Z,100.00
2019-01-16T01:17:03.574Z,100.00
2019-01-16T01:19:39.006Z,100.00
2019-01-16T01:22:08.525Z,100.00
2019-01-16T01:24:39.885Z,100.00
2019-01-16T01:27:27.290Z,100.00
2019-01-16T01:30:04.334Z,100.00
2019-01-16T01:32:38.221Z,100.00
2019-01-16T01:35:12.461Z,100.00
2019-01-16T01:37:59.074Z,100.00
2019-01-16T01:40:46.635Z,100.00
2019-01-16T01:43:36.256Z,100.00
2019-01-16T01:46:23.727Z,100.00
2019-01-16T01:49:00.932Z,100.00
2019-01-16T01:51:31.419Z,100.00
2019-01-16T01:54:11.630Z,100.00
2019-01-16T01:56:48.606Z,100.00
2019-01-16T01:59:20.284Z,100.00
2019-01-16T02:01:57.596Z,100.00
2019-01-16T02:04:29.424Z,100.00
2019-01-16T02:06:58.967Z,100.00
2019-01-16T02:09:30.359Z,100.00
2019-01-16T02:12:14.018Z,100.00
2019-01-16T02:14:45.385Z,100.00
2019-01-16T02:17:28.660Z,100.00
2019-01-16T02:20:05.667Z,100.00
2019-01-16T02:22:49.161Z,100.00
2019-01-16T02:25:38.825Z,100.00
2019-01-16T02:28:10.178Z,100.00
2019-01-16T02:30:54.936Z,100.00
2019-01-16T02:33:27.267Z,100.00
2019-01-16T02:35:58.625Z,100.00
2019-01-16T02:38:35.798Z,100.00
2019-01-16T02:41:25.681Z,100.00
2019-01-16T02:44:13.232Z,100.00
2019-01-16T02:46:44.595Z,100.00
2019-01-16T02:49:21.677Z,100.00
2019-01-16T02:51:55.757Z,100.00
2019-01-16T02:54:33.190Z,100.00
2019-01-16T02:57:20.880Z,100.00
2019-01-16T03:00:01.149Z,100.00
2019-01-16T03:02:47.665Z,100.00
2019-01-16T03:05:28.237Z,100.00
2019-01-16T03:07:59.598Z,100.00
2019-01-16T03:10:47.154Z,100.00
2019-01-16T03:13:18.540Z,100.00
2019-01-16T03:15:49.951Z,100.00
2019-01-16T03:18:21.318Z,100.00
2019-01-16T03:21:08.820Z,100.00
2019-01-16T03:23:43.105Z,100.00
2019-01-16T03:26:23.274Z,100.00
2019-01-16T03:28:54.826Z,100.00
2019-01-16T03:31:30.625Z,100.00
2019-01-16T03:34:03.065Z,100.00
2019-01-16T03:36:50.519Z,100.00
2019-01-16T03:39:21.869Z,100.00
2019-01-16T03:42:08.621Z,100.00
2019-01-16T03:44:42.665Z,100.00
2019-01-16T03:47:12.132Z,100.00
2019-01-16T03:49:58.413Z,100.00
2019-01-16T03:52:32.326Z,100.00
2019-01-16T03:55:06.318Z,100.00
2019-01-16T03:57:37.668Z,99.15
2019-01-16T04:00:13.201Z,99.39
2019-01-16T04:02:44.604Z,98.87
2019-01-16T04:05:15.930Z,98.27
2019-01-16T04:07:49.795Z,97.77
2019-01-16T04:10:27.021Z,98.72
2019-01-16T04:12:58.376Z,99.33
2019-01-16T04:15:47.682Z,100.00
2019-01-16T04:18:38.321Z,98.65
2019-01-16T04:21:09.674Z,98.17
2019-01-16T04:23:41.024Z,98.46
2019-01-16T04:26:21.308Z,98.38
2019-01-16T04:28:58.630Z,96.82
2019-01-16T04:31:29.996Z,97.20
2019-01-16T04:34:04.998Z,97.25
2019-01-16T04:36:42.016Z,97.72
2019-01-16T04:39:25.165Z,97.26
2019-01-16T04:42:12.411Z,97.17
2019-01-16T04:44:43.749Z,98.84
2019-01-16T04:47:18.869Z,97.84
2019-01-16T04:49:52.910Z,99.15
2019-01-16T04:52:22.442Z,98.18
2019-01-16T04:55:10.057Z,98.69
2019-01-16T04:57:39.523Z,98.08
2019-01-16T05:00:14.733Z,98.05
2019-01-16T05:02:46.073Z,99.17
2019-01-16T05:05:26.030Z,98.33
2019-01-16T05:08:03.245Z,97.95
2019-01-16T05:10:37.457Z,97.53
2019-01-16T05:13:16.149Z,97.21
2019-01-16T05:15:52.751Z,97.07
2019-01-16T05:18:41.566Z,97.58
2019-01-16T05:21:29.042Z,96.26
2019-01-16T05:24:15.253Z,96.53
2019-01-16T05:26:46.612Z,96.04
2019-01-16T05:29:32.872Z,96.22
2019-01-16T05:32:10.090Z,95.57
2019-01-16T05:34:41.483Z,95.76
2019-01-16T05:37:12.938Z,97.35
2019-01-16T05:39:48.070Z,97.06
2019-01-16T05:42:31.318Z,96.69
2019-01-16T05:45:19.185Z,95.61
2019-01-16T05:47:50.529Z,96.66
2019-01-16T05:50:21.892Z,96.24
2019-01-16T05:53:05.253Z,96.39
2019-01-16T05:55:42.471Z,95.91
2019-01-16T05:58:13.819Z,96.09
2019-01-16T06:00:51.033Z,95.38
2019-01-16T06:03:38.292Z,95.30
2019-01-16T06:06:21.303Z,95.50
2019-01-16T06:08:56.331Z,95.08
2019-01-16T06:11:30.801Z,95.06
2019-01-16T06:14:04.969Z,93.95
2019-01-16T06:16:45.032Z,93.99
2019-01-16T06:19:22.194Z,94.64
2019-01-16T06:21:53.559Z,93.49
2019-01-16T06:24:28.705Z,94.00
2019-01-16T06:27:16.417Z,94.04
2019-01-16T06:29:47.788Z,92.70
2019-01-16T06:32:17.324Z,93.32
2019-01-16T06:34:51.574Z,93.17
2019-01-16T06:37:25.612Z,91.84
2019-01-16T06:40:11.964Z,93.02
2019-01-16T06:42:43.382Z,92.79
2019-01-16T06:45:21.418Z,92.51
2019-01-16T06:47:52.786Z,91.95
2019-01-16T06:50:25.035Z,92.36
2019-01-16T06:52:56.360Z,93.07
2019-01-16T06:55:30.321Z,92.32
2019-01-16T06:58:05.644Z,91.01
2019-01-16T07:00:42.507Z,90.67
2019-01-16T07:03:16.422Z,90.24
2019-01-16T07:05:53.417Z,90.25
2019-01-16T07:08:27.314Z,91.17
2019-01-16T07:10:59.279Z,90.45
2019-01-16T07:13:34.699Z,90.48
2019-01-16T07:16:06.695Z,89.31
2019-01-16T07:18:49.984Z,89.28
2019-01-16T07:21:21.880Z,88.70
2019-01-16T07:24:11.101Z,88.98
2019-01-16T07:26:40.875Z,88.28
2019-01-16T07:29:15.072Z,88.07
2019-01-16T07:31:52.432Z,89.21
2019-01-16T07:34:26.768Z,88.27
2019-01-16T07:37:02.151Z,89.51
2019-01-16T07:39:36.335Z,88.09
2019-01-16T07:42:24.065Z,87.84
2019-01-16T07:45:01.231Z,87.48
2019-01-16T07:47:48.571Z,88.23
2019-01-16T07:50:19.895Z,87.69
2019-01-16T07:52:51.264Z,88.88
2019-01-16T07:55:38.779Z,88.04
2019-01-16T07:58:10.186Z,89.04
2019-01-16T08:00:50.617Z,88.16
2019-01-16T08:03:24.817Z,88.92
2019-01-16T08:06:12.160Z,86.67
2019-01-16T08:08:46.477Z,87.68
2019-01-16T08:11:34.146Z,87.30
2019-01-16T08:14:05.916Z,87.20
2019-01-16T08:16:55.426Z,86.96
2019-01-16T08:19:26.761Z,87.52
2019-01-16T08:22:03.888Z,87.83
2019-01-16T08:24:53.186Z,87.39
2019-01-16T08:27:25.367Z,86.51
2019-01-16T08:30:05.347Z,86.86
2019-01-16T08:32:52.675Z,87.27
2019-01-16T08:35:24.004Z,86.54
2019-01-16T08:38:01.208Z,87.23
2019-01-16T08:40:35.439Z,86.77
2019-01-16T08:43:08.010Z,86.31
2019-01-16T08:45:55.601Z,86.15
2019-01-16T08:48:25.088Z,86.82
2019-01-16T08:51:12.857Z,86.67
2019-01-16T08:53:46.978Z,86.09
2019-01-16T08:56:18.671Z,85.20
2019-01-16T08:58:53.745Z,86.50
2019-01-16T09:01:34.037Z,86.79
2019-01-16T09:04:21.348Z,84.93
2019-01-16T09:06:58.591Z,84.66
2019-01-16T09:09:28.171Z,85.64
2019-01-16T09:12:05.624Z,85.03
2019-01-16T09:14:47.736Z,85.15
2019-01-16T09:17:25.331Z,85.66
2019-01-16T09:19:56.798Z,84.64
2019-01-16T09:22:28.195Z,84.06
2019-01-16T09:25:08.592Z,84.21
2019-01-16T09:27:49.118Z,85.04
2019-01-16T09:30:36.613Z,81.63
2019-01-16T09:33:20.058Z,82.68
2019-01-16T09:35:54.225Z,85.17
2019-01-16T09:38:41.829Z,84.34
2019-01-16T09:41:13.591Z,83.61
2019-01-16T09:43:47.705Z,84.03
2019-01-16T09:46:35.146Z,83.65
2019-01-16T09:49:07.694Z,84.12
2019-01-16T09:51:54.223Z,83.63
2019-01-16T09:54:25.621Z,84.47
2019-01-16T09:57:13.577Z,84.81
2019-01-16T09:59:43.241Z,84.50
2019-01-16T10:02:30.817Z,83.98
2019-01-16T10:05:14.257Z,85.18
2019-01-16T10:07:51.796Z,85.71
2019-01-16T10:10:39.265Z,84.42
2019-01-16T10:13:19.770Z,85.96
2019-01-16T10:16:00.136Z,85.79
2019-01-16T10:18:40.180Z,85.52
2019-01-16T10:21:11.541Z,85.68
2019-01-16T10:23:45.691Z,85.03
2019-01-16T10:26:31.989Z,85.46
2019-01-16T10:29:15.274Z,86.17
2019-01-16T10:31:46.663Z,86.03
2019-01-16T10:34:36.242Z,84.96
2019-01-16T10:37:07.746Z,85.07
2019-01-16T10:39:44.875Z,84.98
2019-01-16T10:42:20.839Z,85.50
2019-01-16T10:44:51.911Z,84.70
2019-01-16T10:47:29.179Z,84.53
2019-01-16T10:50:16.750Z,85.01
2019-01-16T10:52:54.239Z,86.29
2019-01-16T10:55:44.863Z,84.69
2019-01-16T10:58:32.681Z,85.12
2019-01-16T11:01:08.158Z,85.54
2019-01-16T11:03:39.530Z,85.57
2019-01-16T11:06:27.110Z,85.18
2019-01-16T11:09:07.231Z,85.01
2019-01-16T11:11:54.708Z,84.74
2019-01-16T11:14:42.354Z,85.83
2019-01-16T11:17:19.697Z,84.19
2019-01-16T11:19:52.047Z,84.58
2019-01-16T11:22:39.191Z,83.65
2019-01-16T11:25:11.696Z,84.00
2019-01-16T11:27:43.028Z,84.57
2019-01-16T11:30:26.810Z,85.28
2019-01-16T11:33:07.550Z,85.37
2019-01-16T11:35:55.086Z,85.51
2019-01-16T11:38:35.347Z,86.14
2019-01-16T11:41:12.297Z,85.38
2019-01-16T11:43:43.666Z,83.97
2019-01-16T11:46:15.021Z,84.44
2019-01-16T11:48:51.910Z,85.61
2019-01-16T11:51:23.286Z,84.95
2019-01-16T11:54:12.624Z,84.44
2019-01-16T11:56:46.520Z,85.10
2019-01-16T11:59:24.681Z,85.21
2019-01-16T12:01:56.086Z,84.77
2019-01-16T12:04:28.400Z,83.67
2019-01-16T12:06:59.776Z,84.19
2019-01-16T12:09:47.140Z,84.86
2019-01-16T12:12:18.525Z,83.80
2019-01-16T12:15:04.816Z,84.81
2019-01-16T12:17:38.683Z,85.27
2019-01-16T12:20:24.334Z,86.71
2019-01-16T12:23:07.506Z,85.69
2019-01-16T12:25:38.893Z,85.01
2019-01-16T12:28:19.098Z,83.12
2019-01-16T12:30:53.551Z,85.01
2019-01-16T12:33:25.751Z,85.17
2019-01-16T12:35:57.140Z,84.47
2019-01-16T12:38:31.324Z,83.35
2019-01-16T12:41:18.825Z,84.15
2019-01-16T12:43:59.059Z,84.08
2019-01-16T12:46:33.266Z,83.14
2019-01-16T12:49:07.240Z,83.06
2019-01-16T12:51:38.621Z,83.81
2019-01-16T12:54:17.217Z,83.69
2019-01-16T12:57:00.488Z,82.61
2019-01-16T12:59:31.982Z,81.29
2019-01-16T13:02:03.335Z,82.10
2019-01-16T13:04:43.677Z,80.72
2019-01-16T13:07:17.633Z,82.07
2019-01-16T13:10:04.235Z,82.87
2019-01-16T13:12:35.617Z,82.47
2019-01-16T13:15:08.663Z,82.26
2019-01-16T13:17:38.121Z,82.34
2019-01-16T13:20:12.479Z,81.21
2019-01-16T13:22:49.618Z,82.53
2019-01-16T13:25:27.968Z,81.79
2019-01-16T13:28:17.895Z,82.68
2019-01-16T13:31:01.316Z,83.88
2019-01-16T13:33:48.492Z,83.52
2019-01-16T13:36:18.135Z,83.55
2019-01-16T13:39:01.838Z,82.97
2019-01-16T13:41:42.202Z,82.74
2019-01-16T13:44:16.398Z,82.53
2019-01-16T13:46:47.791Z,82.75
2019-01-16T13:49:19.161Z,82.90
2019-01-16T13:51:50.575Z,82.40
2019-01-16T13:54:30.852Z,82.66
2019-01-16T13:57:18.287Z,81.70
2019-01-16T14:00:04.555Z,81.67
2019-01-16T14:02:35.919Z,81.62
2019-01-16T14:05:14.704Z,80.06
2019-01-16T14:07:46.044Z,80.29
2019-01-16T14:10:18.392Z,80.92
2019-01-16T14:12:52.593Z,80.23
2019-01-16T14:15:40.111Z,79.79
2019-01-16T14:18:11.487Z,79.18
2019-01-16T14:20:42.899Z,80.65
2019-01-16T14:23:26.253Z,79.77
2019-01-16T14:26:13.857Z,80.85
2019-01-16T14:29:00.168Z,80.43
2019-01-16T14:31:31.501Z,80.99
2019-01-16T14:34:19.030Z,81.97
2019-01-16T14:36:50.380Z,81.23
2019-01-16T14:39:27.507Z,81.56
2019-01-16T14:41:58.864Z,83.30
2019-01-16T14:44:42.624Z,81.90
2019-01-16T14:47:22.804Z,82.02
2019-01-16T14:49:58.529Z,81.63
2019-01-16T14:52:46.075Z,82.86
2019-01-16T14:55:27.547Z,82.80
2019-01-16T14:58:04.490Z,82.74
2019-01-16T15:00:44.875Z,83.13
2019-01-16T15:03:14.405Z,82.58
2019-01-16T15:05:48.582Z,82.80
2019-01-16T15:08:28.781Z,83.88
2019-01-16T15:11:06.331Z,83.44
2019-01-16T15:13:41.754Z,82.92
2019-01-16T15:16:13.101Z,83.51
2019-01-16T15:19:00.641Z,83.80
2019-01-16T15:21:31.978Z,84.02
2019-01-16T15:24:04.114Z,85.79
2019-01-16T15:26:38.236Z,86.35
2019-01-16T15:29:15.261Z,86.99
2019-01-16T15:31:52.492Z,86.15
2019-01-16T15:34:23.842Z,86.40
2019-01-16T15:36:55.194Z,85.82
2019-01-16T15:39:44.737Z,86.28
2019-01-16T15:42:25.053Z,85.81
2019-01-16T15:45:06.683Z,86.51
2019-01-16T15:47:46.965Z,85.41
2019-01-16T15:50:18.308Z,85.81
2019-01-16T15:52:52.251Z,86.48
2019-01-16T15:55:39.549Z,88.24
2019-01-16T15:58:19.988Z,88.04
2019-01-16T16:00:58.551Z,89.59
2019-01-16T16:03:36.560Z,88.88
2019-01-16T16:06:15.139Z,88.59
2019-01-16T16:08:58.665Z,89.03
2019-01-16T16:11:35.506Z,89.46
2019-01-16T16:14:17.126Z,87.89
2019-01-16T16:16:48.495Z,88.02
2019-01-16T16:19:28.961Z,88.84
2019-01-16T16:21:58.499Z,89.36
2019-01-16T16:24:46.272Z,88.55
2019-01-16T16:27:17.665Z,88.10
2019-01-16T16:29:49.023Z,88.43
2019-01-16T16:32:23.493Z,88.26
2019-01-16T16:35:02.089Z,88.27
2019-01-16T16:37:37.401Z,88.88
2019-01-16T16:40:11.957Z,89.26
2019-01-16T16:42:46.166Z,88.86
2019-01-16T16:45:33.409Z,88.89
2019-01-16T16:48:19.746Z,89.70
2019-01-16T16:50:54.081Z,89.16
2019-01-16T16:53:25.424Z,89.89
2019-01-16T16:55:59.380Z,91.14
2019-01-16T16:58:42.835Z,91.88
2019-01-16T17:01:20.332Z,91.56
2019-01-16T17:03:54.440Z,91.27
2019-01-16T17:06:44.283Z,92.62
2019-01-16T17:09:21.332Z,93.66
2019-01-16T17:12:04.597Z,94.44
2019-01-16T17:14:36.809Z,94.53
2019-01-16T17:17:25.067Z,94.77
2019-01-16T17:20:05.450Z,96.35
2019-01-16T17:22:51.604Z,96.43
2019-01-16T17:25:39.183Z,96.43
2019-01-16T17:28:13.498Z,97.13
2019-01-16T17:30:47.433Z,97.36
2019-01-16T17:33:39.298Z,97.87
2019-01-16T17:36:10.699Z,98.00
2019-01-16T17:38:52.352Z,97.60
2019-01-16T17:41:21.833Z,97.57
2019-01-16T17:43:56.039Z,97.97
2019-01-16T17:46:27.381Z,97.59
2019-01-16T17:49:01.968Z,94.29
2019-01-16T17:51:46.699Z,92.04
2019-01-16T17:54:33.801Z,91.05
2019-01-16T17:57:18.151Z,91.85
2019-01-16T17:59:53.499Z,91.07
2019-01-16T18:02:25.785Z,90.93
2019-01-16T18:05:13.262Z,90.19
2019-01-16T18:07:50.156Z,90.07
2019-01-16T18:10:24.087Z,90.16
2019-01-16T18:13:11.650Z,89.42
2019-01-16T18:16:01.173Z,89.03
2019-01-16T18:18:47.397Z,89.34
2019-01-16T18:21:27.758Z,90.08
2019-01-16T18:24:15.186Z,90.31
2019-01-16T18:27:04.452Z,90.67
2019-01-16T18:29:35.797Z,91.37
2019-01-16T18:32:19.706Z,90.98
2019-01-16T18:35:06.944Z,90.83
2019-01-16T18:37:41.076Z,90.41
2019-01-16T18:40:15.521Z,90.13
2019-01-16T18:42:45.013Z,90.71
2019-01-16T18:45:32.588Z,90.82
2019-01-16T18:48:03.961Z,90.76
2019-01-16T18:50:38.536Z,91.29
2019-01-16T18:53:09.918Z,91.04
2019-01-16T18:55:41.260Z,90.71
2019-01-16T18:58:15.428Z,91.05
2019-01-16T19:01:05.063Z,91.10
2019-01-16T19:03:51.393Z,91.97
2019-01-16T19:06:38.588Z,91.72
2019-01-16T19:09:18.209Z,91.14
2019-01-16T19:12:01.492Z,90.60
2019-01-16T19:14:41.576Z,90.41
2019-01-16T19:17:22.034Z,89.92
2019-01-16T19:19:53.424Z,88.89
2019-01-16T19:22:30.762Z,88.76
2019-01-16T19:25:17.314Z,89.02
2019-01-16T19:27:51.702Z,89.34
2019-01-16T19:30:39.227Z,88.68
2019-01-16T19:33:08.874Z,89.19
2019-01-16T19:35:42.967Z,88.64
2019-01-16T19:38:23.416Z,89.54
2019-01-16T19:41:11.403Z,89.30
2019-01-16T19:43:42.768Z,86.90
2019-01-16T19:46:14.188Z,86.74
2019-01-16T19:49:02.724Z,86.63
2019-01-16T19:51:50.187Z,86.79
2019-01-16T19:54:33.987Z,86.38
2019-01-16T19:57:14.068Z,85.81
2019-01-16T19:59:43.512Z,87.69
2019-01-16T20:02:17.811Z,87.45
2019-01-16T20:04:55.274Z,87.09
2019-01-16T20:07:42.721Z,87.49
2019-01-16T20:10:16.823Z,86.86
2019-01-16T20:13:04.345Z,85.83
2019-01-16T20:15:47.678Z,85.97
2019-01-16T20:18:17.176Z,85.98
2019-01-16T20:21:03.413Z,87.20
2019-01-16T20:23:34.766Z,86.87
2019-01-16T20:26:22.420Z,86.05
2019-01-16T20:28:53.850Z,85.73
2019-01-16T20:31:34.130Z,85.39
2019-01-16T20:34:17.378Z,86.28
2019-01-16T20:36:48.713Z,85.99
2019-01-16T20:39:24.107Z,86.11
2019-01-16T20:42:11.406Z,84.89
2019-01-16T20:44:40.914Z,84.99
2019-01-16T20:47:10.424Z,85.25
2019-01-16T20:49:44.348Z,85.09
2019-01-16T20:52:24.348Z,85.29
2019-01-16T20:54:55.715Z,85.50
2019-01-16T20:57:29.919Z,85.32
2019-01-16T21:00:20.156Z,85.02
2019-01-16T21:03:04.882Z,85.20
2019-01-16T21:05:39.103Z,85.30
2019-01-16T21:08:19.358Z,85.87
2019-01-16T21:11:06.933Z,85.04
2019-01-16T21:13:44.064Z,85.17
2019-01-16T21:16:31.476Z,84.62
2019-01-16T21:19:19.095Z,83.88
2019-01-16T21:21:50.467Z,85.05
2019-01-16T21:24:21.811Z,85.49
2019-01-16T21:27:05.124Z,85.61
2019-01-16T21:29:48.411Z,84.64
2019-01-16T21:32:25.567Z,85.86
2019-01-16T21:35:15.168Z,85.02
2019-01-16T21:38:04.810Z,85.23
2019-01-16T21:40:51.324Z,84.67
2019-01-16T21:43:25.458Z,85.13
2019-01-16T21:46:02.396Z,84.72
2019-01-16T21:48:33.788Z,84.84
2019-01-16T21:51:05.167Z,84.44
2019-01-16T21:53:48.584Z,84.31
2019-01-16T21:56:25.799Z,84.33
2019-01-16T21:59:02.784Z,83.91
2019-01-16T22:01:46.252Z,84.50
2019-01-16T22:04:20.429Z,84.96
2019-01-16T22:06:51.827Z,84.94
2019-01-16T22:09:39.333Z,85.81
2019-01-16T22:12:10.694Z,84.94
2019-01-16T22:14:44.868Z,85.32
2019-01-16T22:17:23.270Z,84.73
2019-01-16T22:19:54.735Z,85.03
2019-01-16T22:22:26.066Z,84.92
2019-01-16T22:25:04.110Z,85.06
2019-01-16T22:27:35.453Z,85.41
2019-01-16T22:30:18.769Z,84.69
2019-01-16T22:32:54.066Z,85.79
2019-01-16T22:35:25.432Z,85.16
2019-01-16T22:37:59.709Z,86.35
2019-01-16T22:40:39.873Z,86.21
2019-01-16T22:43:13.778Z,85.73
2019-01-16T22:46:01.188Z,85.84
2019-01-16T22:48:50.451Z,85.72
2019-01-16T22:51:21.787Z,86.38
2019-01-16T22:53:58.723Z,86.81
2019-01-16T22:56:28.233Z,86.15
2019-01-16T22:58:57.740Z,86.42
2019-01-16T23:01:31.812Z,86.50
2019-01-16T23:04:03.177Z,86.05
2019-01-16T23:06:41.204Z,86.66
2019-01-16T23:09:11.234Z,86.14
2019-01-16T23:11:46.660Z,87.10
2019-01-16T23:14:34.216Z,86.89
2019-01-16T23:17:14.228Z,86.93
2019-01-16T23:19:45.590Z,86.40
2019-01-16T23:22:22.882Z,87.01
2019-01-16T23:24:57.073Z,86.69
2019-01-16T23:27:43.300Z,87.67
2019-01-16T23:30:18.905Z,86.57
2019-01-16T23:32:52.915Z,87.27
2019-01-16T23:35:24.286Z,88.10
2019-01-16T23:38:11.899Z,88.32
2019-01-16T23:40:51.938Z,88.82
2019-01-16T23:43:25.953Z,89.47
2019-01-16T23:45:59.903Z,90.35
2019-01-16T23:48:40.145Z,89.01
2019-01-16T23:51:23.791Z,89.76
2019-01-16T23:53:57.993Z,89.70
2019-01-16T23:56:35.419Z,91.40
2019-01-16T23:59:06.798Z,92.43
